sensor_id;sensor_type;location;lat;lon;timestamp;P1;durP1;ratioP1;P2;durP2;ratioP2
5900;SDS011;2976;49.764;9.796;2023-06-10T00:02:07;18.73;;;10.40;;
5900;SDS011;2976;49.764;9.796;2023-06-10T00:04:33;14.17;;;10.60;;
5900;SDS011;2976;49.764;9.796;2023-06-10T00:07:02;12.13;;;9.90;;
5900;SDS011;2976;49.764;9.796;2023-06-10T00:09:28;11.93;;;10.30;;
5900;SDS011;2976;49.764;9.796;2023-06-10T00:11:54;10.60;;;9.50;;
5900;SDS011;2976;49.764;9.796;2023-06-10T00:14:20;11.87;;;8.90;;
5900;SDS011;2976;49.764;9.796;2023-06-10T00:16:45;11.70;;;9.57;;
5900;SDS011;2976;49.764;9.796;2023-06-10T00:19:11;10.33;;;8.27;;
5900;SDS011;2976;49.764;9.796;2023-06-10T00:21:38;10.87;;;8.87;;
5900;SDS011;2976;49.764;9.796;2023-06-10T00:24:09;10.33;;;8.80;;
5900;SDS011;2976;49.764;9.796;2023-06-10T00:26:37;10.33;;;8.40;;
5900;SDS011;2976;49.764;9.796;2023-06-10T00:29:06;10.33;;;8.40;;
5900;SDS011;2976;49.764;9.796;2023-06-10T00:31:33;11.00;;;8.23;;
5900;SDS011;2976;49.764;9.796;2023-06-10T00:33:59;10.07;;;9.00;;
5900;SDS011;2976;49.764;9.796;2023-06-10T00:36:25;9.90;;;8.90;;
5900;SDS011;2976;49.764;9.796;2023-06-10T00:38:51;25.20;;;10.57;;
5900;SDS011;2976;49.764;9.796;2023-06-10T00:41:17;12.80;;;8.90;;
5900;SDS011;2976;49.764;9.796;2023-06-10T00:43:43;11.10;;;9.30;;
5900;SDS011;2976;49.764;9.796;2023-06-10T00:46:09;11.43;;;9.83;;
5900;SDS011;2976;49.764;9.796;2023-06-10T00:48:36;14.27;;;10.87;;
5900;SDS011;2976;49.764;9.796;2023-06-10T00:51:04;13.40;;;11.23;;
5900;SDS011;2976;49.764;9.796;2023-06-10T00:53:30;9.57;;;8.67;;
5900;SDS011;2976;49.764;9.796;2023-06-10T00:55:57;11.17;;;9.37;;
5900;SDS011;2976;49.764;9.796;2023-06-10T00:58:23;9.90;;;9.00;;
5900;SDS011;2976;49.764;9.796;2023-06-10T01:00:50;10.60;;;9.53;;
5900;SDS011;2976;49.764;9.796;2023-06-10T01:03:16;10.73;;;9.47;;
5900;SDS011;2976;49.764;9.796;2023-06-10T01:05:43;11.10;;;9.83;;
5900;SDS011;2976;49.764;9.796;2023-06-10T01:08:28;10.17;;;9.20;;
5900;SDS011;2976;49.764;9.796;2023-06-10T01:11:00;11.13;;;9.27;;
5900;SDS011;2976;49.764;9.796;2023-06-10T01:13:29;15.07;;;10.90;;
5900;SDS011;2976;49.764;9.796;2023-06-10T01:15:57;14.27;;;11.30;;
5900;SDS011;2976;49.764;9.796;2023-06-10T01:18:29;17.50;;;10.30;;
5900;SDS011;2976;49.764;9.796;2023-06-10T01:20:55;11.10;;;9.93;;
5900;SDS011;2976;49.764;9.796;2023-06-10T01:23:22;10.57;;;9.57;;
5900;SDS011;2976;49.764;9.796;2023-06-10T01:25:59;12.23;;;10.67;;
5900;SDS011;2976;49.764;9.796;2023-06-10T01:28:32;11.10;;;10.13;;
5900;SDS011;2976;49.764;9.796;2023-06-10T01:34:12;13.03;;;11.67;;
5900;SDS011;2976;49.764;9.796;2023-06-10T01:36:41;11.93;;;10.63;;
5900;SDS011;2976;49.764;9.796;2023-06-10T01:39:10;12.30;;;10.20;;
5900;SDS011;2976;49.764;9.796;2023-06-10T01:41:37;11.33;;;10.23;;
5900;SDS011;2976;49.764;9.796;2023-06-10T01:44:04;13.53;;;10.50;;
5900;SDS011;2976;49.764;9.796;2023-06-10T01:46:30;15.73;;;9.07;;
5900;SDS011;2976;49.764;9.796;2023-06-10T01:48:55;14.50;;;10.70;;
5900;SDS011;2976;49.764;9.796;2023-06-10T01:51:21;12.30;;;9.70;;
5900;SDS011;2976;49.764;9.796;2023-06-10T01:53:47;10.07;;;9.07;;
5900;SDS011;2976;49.764;9.796;2023-06-10T01:56:12;14.53;;;9.67;;
5900;SDS011;2976;49.764;9.796;2023-06-10T01:58:44;9.60;;;8.60;;
5900;SDS011;2976;49.764;9.796;2023-06-10T02:01:10;10.60;;;9.60;;
5900;SDS011;2976;49.764;9.796;2023-06-10T02:03:36;11.37;;;8.80;;
5900;SDS011;2976;49.764;9.796;2023-06-10T02:06:01;14.10;;;10.70;;
5900;SDS011;2976;49.764;9.796;2023-06-10T02:08:27;10.33;;;9.33;;
5900;SDS011;2976;49.764;9.796;2023-06-10T02:10:53;13.43;;;10.07;;
5900;SDS011;2976;49.764;9.796;2023-06-10T02:13:18;14.20;;;10.20;;
5900;SDS011;2976;49.764;9.796;2023-06-10T02:15:44;11.40;;;9.37;;
5900;SDS011;2976;49.764;9.796;2023-06-10T02:18:09;10.87;;;9.77;;
5900;SDS011;2976;49.764;9.796;2023-06-10T02:20:37;14.77;;;10.47;;
5900;SDS011;2976;49.764;9.796;2023-06-10T02:23:03;11.77;;;10.50;;
5900;SDS011;2976;49.764;9.796;2023-06-10T02:25:28;15.67;;;10.63;;
5900;SDS011;2976;49.764;9.796;2023-06-10T02:27:54;13.23;;;10.37;;
5900;SDS011;2976;49.764;9.796;2023-06-10T02:30:20;14.13;;;9.80;;
5900;SDS011;2976;49.764;9.796;2023-06-10T02:32:46;12.47;;;10.93;;
5900;SDS011;2976;49.764;9.796;2023-06-10T02:35:13;11.10;;;10.10;;
5900;SDS011;2976;49.764;9.796;2023-06-10T02:37:39;12.33;;;10.57;;
5900;SDS011;2976;49.764;9.796;2023-06-10T02:40:05;10.50;;;9.50;;
5900;SDS011;2976;49.764;9.796;2023-06-10T02:42:31;13.20;;;9.40;;
5900;SDS011;2976;49.764;9.796;2023-06-10T02:44:57;11.13;;;10.07;;
5900;SDS011;2976;49.764;9.796;2023-06-10T02:47:22;10.63;;;9.63;;
5900;SDS011;2976;49.764;9.796;2023-06-10T02:49:48;10.97;;;9.97;;
5900;SDS011;2976;49.764;9.796;2023-06-10T02:52:13;13.10;;;10.20;;
5900;SDS011;2976;49.764;9.796;2023-06-10T02:54:39;11.90;;;10.43;;
5900;SDS011;2976;49.764;9.796;2023-06-10T02:57:05;13.00;;;10.03;;
5900;SDS011;2976;49.764;9.796;2023-06-10T02:59:31;10.70;;;9.67;;
5900;SDS011;2976;49.764;9.796;2023-06-10T03:01:56;14.33;;;9.97;;
5900;SDS011;2976;49.764;9.796;2023-06-10T03:04:22;18.27;;;11.43;;
5900;SDS011;2976;49.764;9.796;2023-06-10T03:06:50;12.10;;;10.80;;
5900;SDS011;2976;49.764;9.796;2023-06-10T03:09:16;12.80;;;10.00;;
5900;SDS011;2976;49.764;9.796;2023-06-10T03:11:41;11.33;;;10.20;;
5900;SDS011;2976;49.764;9.796;2023-06-10T03:14:07;11.33;;;10.23;;
5900;SDS011;2976;49.764;9.796;2023-06-10T03:16:32;12.43;;;9.63;;
5900;SDS011;2976;49.764;9.796;2023-06-10T03:18:58;12.17;;;10.60;;
5900;SDS011;2976;49.764;9.796;2023-06-10T03:21:23;14.43;;;10.00;;
5900;SDS011;2976;49.764;9.796;2023-06-10T03:23:49;11.83;;;10.63;;
5900;SDS011;2976;49.764;9.796;2023-06-10T03:26:15;12.87;;;10.33;;
5900;SDS011;2976;49.764;9.796;2023-06-10T03:28:41;14.43;;;10.30;;
5900;SDS011;2976;49.764;9.796;2023-06-10T03:31:07;14.20;;;9.87;;
5900;SDS011;2976;49.764;9.796;2023-06-10T03:33:32;11.60;;;10.10;;
5900;SDS011;2976;49.764;9.796;2023-06-10T03:35:58;10.67;;;9.57;;
5900;SDS011;2976;49.764;9.796;2023-06-10T03:38:24;11.73;;;9.80;;
5900;SDS011;2976;49.764;9.796;2023-06-10T03:40:49;12.27;;;9.70;;
5900;SDS011;2976;49.764;9.796;2023-06-10T03:43:15;13.17;;;10.80;;
5900;SDS011;2976;49.764;9.796;2023-06-10T03:45:41;11.60;;;10.43;;
5900;SDS011;2976;49.764;9.796;2023-06-10T03:48:06;15.23;;;11.37;;
5900;SDS011;2976;49.764;9.796;2023-06-10T03:50:34;11.97;;;10.67;;
5900;SDS011;2976;49.764;9.796;2023-06-10T03:53:01;11.70;;;10.50;;
5900;SDS011;2976;49.764;9.796;2023-06-10T03:55:27;11.37;;;10.13;;
5900;SDS011;2976;49.764;9.796;2023-06-10T03:57:52;13.20;;;10.93;;
5900;SDS011;2976;49.764;9.796;2023-06-10T04:00:18;12.70;;;11.27;;
5900;SDS011;2976;49.764;9.796;2023-06-10T04:02:46;11.13;;;9.93;;
5900;SDS011;2976;49.764;9.796;2023-06-10T04:05:13;11.77;;;10.13;;
5900;SDS011;2976;49.764;9.796;2023-06-10T04:07:40;13.63;;;10.33;;
5900;SDS011;2976;49.764;9.796;2023-06-10T04:10:10;15.20;;;10.90;;
5900;SDS011;2976;49.764;9.796;2023-06-10T04:12:36;14.77;;;10.77;;
5900;SDS011;2976;49.764;9.796;2023-06-10T04:15:03;12.23;;;9.93;;
5900;SDS011;2976;49.764;9.796;2023-06-10T04:17:29;16.87;;;10.97;;
5900;SDS011;2976;49.764;9.796;2023-06-10T04:19:55;10.83;;;9.73;;
5900;SDS011;2976;49.764;9.796;2023-06-10T04:22:21;10.47;;;8.43;;
5900;SDS011;2976;49.764;9.796;2023-06-10T04:24:47;9.10;;;8.20;;
5900;SDS011;2976;49.764;9.796;2023-06-10T04:27:13;7.93;;;7.00;;
5900;SDS011;2976;49.764;9.796;2023-06-10T04:29:39;8.00;;;7.20;;
5900;SDS011;2976;49.764;9.796;2023-06-10T04:32:04;6.83;;;6.13;;
5900;SDS011;2976;49.764;9.796;2023-06-10T04:34:32;13.27;;;6.40;;
5900;SDS011;2976;49.764;9.796;2023-06-10T04:36:58;10.00;;;5.67;;
5900;SDS011;2976;49.764;9.796;2023-06-10T04:39:24;7.80;;;7.00;;
5900;SDS011;2976;49.764;9.796;2023-06-10T04:41:49;7.27;;;6.67;;
5900;SDS011;2976;49.764;9.796;2023-06-10T04:44:15;7.87;;;7.03;;
5900;SDS011;2976;49.764;9.796;2023-06-10T04:46:40;8.27;;;6.90;;
5900;SDS011;2976;49.764;9.796;2023-06-10T04:49:06;7.47;;;6.03;;
5900;SDS011;2976;49.764;9.796;2023-06-10T04:51:31;11.33;;;7.10;;
5900;SDS011;2976;49.764;9.796;2023-06-10T04:53:57;7.93;;;6.53;;
5900;SDS011;2976;49.764;9.796;2023-06-10T04:56:23;6.13;;;5.60;;
5900;SDS011;2976;49.764;9.796;2023-06-10T04:58:49;7.57;;;6.63;;
5900;SDS011;2976;49.764;9.796;2023-06-10T05:01:15;6.50;;;5.90;;
5900;SDS011;2976;49.764;9.796;2023-06-10T05:03:40;8.37;;;6.57;;
5900;SDS011;2976;49.764;9.796;2023-06-10T05:06:06;11.07;;;6.70;;
5900;SDS011;2976;49.764;9.796;2023-06-10T05:08:32;6.97;;;5.80;;
5900;SDS011;2976;49.764;9.796;2023-06-10T05:10:58;7.43;;;6.70;;
5900;SDS011;2976;49.764;9.796;2023-06-10T05:13:23;8.23;;;6.70;;
5900;SDS011;2976;49.764;9.796;2023-06-10T05:15:49;6.10;;;5.60;;
5900;SDS011;2976;49.764;9.796;2023-06-10T05:18:15;7.97;;;6.20;;
5900;SDS011;2976;49.764;9.796;2023-06-10T05:20:40;6.50;;;5.67;;
5900;SDS011;2976;49.764;9.796;2023-06-10T05:23:06;6.40;;;5.80;;
5900;SDS011;2976;49.764;9.796;2023-06-10T05:25:31;7.13;;;6.43;;
5900;SDS011;2976;49.764;9.796;2023-06-10T05:27:57;8.63;;;6.40;;
5900;SDS011;2976;49.764;9.796;2023-06-10T05:30:23;8.10;;;6.30;;
5900;SDS011;2976;49.764;9.796;2023-06-10T05:32:50;7.07;;;6.47;;
5900;SDS011;2976;49.764;9.796;2023-06-10T05:35:16;6.37;;;5.77;;
5900;SDS011;2976;49.764;9.796;2023-06-10T05:37:42;9.93;;;6.63;;
5900;SDS011;2976;49.764;9.796;2023-06-10T05:40:08;10.77;;;5.93;;
5900;SDS011;2976;49.764;9.796;2023-06-10T05:42:34;7.10;;;6.40;;
5900;SDS011;2976;49.764;9.796;2023-06-10T05:44:59;7.13;;;6.43;;
5900;SDS011;2976;49.764;9.796;2023-06-10T05:47:25;11.90;;;6.93;;
5900;SDS011;2976;49.764;9.796;2023-06-10T05:49:51;8.17;;;6.30;;
5900;SDS011;2976;49.764;9.796;2023-06-10T05:52:17;7.07;;;6.43;;
5900;SDS011;2976;49.764;9.796;2023-06-10T05:54:43;7.73;;;7.03;;
5900;SDS011;2976;49.764;9.796;2023-06-10T05:57:09;8.30;;;6.90;;
5900;SDS011;2976;49.764;9.796;2023-06-10T05:59:35;5.83;;;5.33;;
5900;SDS011;2976;49.764;9.796;2023-06-10T06:02:01;9.93;;;5.77;;
5900;SDS011;2976;49.764;9.796;2023-06-10T06:04:26;7.30;;;5.40;;
5900;SDS011;2976;49.764;9.796;2023-06-10T06:06:52;10.43;;;5.83;;
5900;SDS011;2976;49.764;9.796;2023-06-10T06:09:17;14.50;;;5.93;;
5900;SDS011;2976;49.764;9.796;2023-06-10T06:11:43;6.80;;;6.20;;
5900;SDS011;2976;49.764;9.796;2023-06-10T06:14:08;7.30;;;5.43;;
5900;SDS011;2976;49.764;9.796;2023-06-10T06:16:34;10.47;;;6.47;;
5900;SDS011;2976;49.764;9.796;2023-06-10T06:19:00;12.20;;;6.40;;
5900;SDS011;2976;49.764;9.796;2023-06-10T06:21:25;7.43;;;5.90;;
5900;SDS011;2976;49.764;9.796;2023-06-10T06:23:51;6.57;;;5.97;;
5900;SDS011;2976;49.764;9.796;2023-06-10T06:26:16;6.93;;;6.23;;
5900;SDS011;2976;49.764;9.796;2023-06-10T06:28:42;12.17;;;6.50;;
5900;SDS011;2976;49.764;9.796;2023-06-10T06:31:07;6.53;;;5.93;;
5900;SDS011;2976;49.764;9.796;2023-06-10T06:33:33;7.00;;;6.10;;
5900;SDS011;2976;49.764;9.796;2023-06-10T06:35:59;6.63;;;5.97;;
5900;SDS011;2976;49.764;9.796;2023-06-10T06:38:27;12.63;;;5.40;;
5900;SDS011;2976;49.764;9.796;2023-06-10T06:40:53;8.20;;;6.00;;
5900;SDS011;2976;49.764;9.796;2023-06-10T06:43:19;5.90;;;5.40;;
5900;SDS011;2976;49.764;9.796;2023-06-10T06:45:45;7.77;;;5.70;;
5900;SDS011;2976;49.764;9.796;2023-06-10T06:48:11;6.20;;;5.70;;
5900;SDS011;2976;49.764;9.796;2023-06-10T06:50:37;6.13;;;5.47;;
5900;SDS011;2976;49.764;9.796;2023-06-10T06:53:03;6.80;;;6.20;;
5900;SDS011;2976;49.764;9.796;2023-06-10T06:55:29;7.67;;;6.97;;
5900;SDS011;2976;49.764;9.796;2023-06-10T06:57:55;6.87;;;5.57;;
5900;SDS011;2976;49.764;9.796;2023-06-10T07:00:20;9.63;;;6.37;;
5900;SDS011;2976;49.764;9.796;2023-06-10T07:02:46;8.00;;;6.00;;
5900;SDS011;2976;49.764;9.796;2023-06-10T07:05:12;6.73;;;6.03;;
5900;SDS011;2976;49.764;9.796;2023-06-10T07:07:38;10.70;;;5.97;;
5900;SDS011;2976;49.764;9.796;2023-06-10T07:10:03;7.53;;;5.60;;
5900;SDS011;2976;49.764;9.796;2023-06-10T07:12:29;6.30;;;5.70;;
5900;SDS011;2976;49.764;9.796;2023-06-10T07:14:55;6.77;;;6.23;;
5900;SDS011;2976;49.764;9.796;2023-06-10T07:17:20;8.63;;;6.70;;
5900;SDS011;2976;49.764;9.796;2023-06-10T07:19:46;7.90;;;6.00;;
5900;SDS011;2976;49.764;9.796;2023-06-10T07:22:11;9.50;;;7.17;;
5900;SDS011;2976;49.764;9.796;2023-06-10T07:24:37;7.30;;;6.10;;
5900;SDS011;2976;49.764;9.796;2023-06-10T07:27:02;8.57;;;6.60;;
5900;SDS011;2976;49.764;9.796;2023-06-10T07:29:28;7.40;;;6.60;;
5900;SDS011;2976;49.764;9.796;2023-06-10T07:31:54;7.03;;;6.30;;
5900;SDS011;2976;49.764;9.796;2023-06-10T07:34:19;6.80;;;6.17;;
5900;SDS011;2976;49.764;9.796;2023-06-10T07:36:45;7.70;;;6.40;;
5900;SDS011;2976;49.764;9.796;2023-06-10T07:39:11;10.23;;;5.70;;
5900;SDS011;2976;49.764;9.796;2023-06-10T07:41:36;7.60;;;6.90;;
5900;SDS011;2976;49.764;9.796;2023-06-10T07:44:02;9.20;;;5.83;;
5900;SDS011;2976;49.764;9.796;2023-06-10T07:46:28;6.73;;;6.13;;
5900;SDS011;2976;49.764;9.796;2023-06-10T07:48:53;9.20;;;6.07;;
5900;SDS011;2976;49.764;9.796;2023-06-10T07:51:20;5.83;;;5.33;;
5900;SDS011;2976;49.764;9.796;2023-06-10T07:53:46;7.10;;;5.97;;
5900;SDS011;2976;49.764;9.796;2023-06-10T07:56:11;6.30;;;5.70;;
5900;SDS011;2976;49.764;9.796;2023-06-10T07:58:37;6.77;;;6.03;;
5900;SDS011;2976;49.764;9.796;2023-06-10T08:01:03;7.23;;;6.53;;
5900;SDS011;2976;49.764;9.796;2023-06-10T08:03:29;6.87;;;5.90;;
5900;SDS011;2976;49.764;9.796;2023-06-10T08:05:54;6.37;;;5.80;;
5900;SDS011;2976;49.764;9.796;2023-06-10T08:08:20;7.00;;;6.30;;
5900;SDS011;2976;49.764;9.796;2023-06-10T08:10:45;6.17;;;5.57;;
5900;SDS011;2976;49.764;9.796;2023-06-10T08:13:11;6.10;;;5.50;;
5900;SDS011;2976;49.764;9.796;2023-06-10T08:15:37;5.90;;;5.30;;
5900;SDS011;2976;49.764;9.796;2023-06-10T08:18:02;9.60;;;6.00;;
5900;SDS011;2976;49.764;9.796;2023-06-10T08:20:28;9.40;;;6.27;;
5900;SDS011;2976;49.764;9.796;2023-06-10T08:22:54;8.50;;;5.80;;
5900;SDS011;2976;49.764;9.796;2023-06-10T08:25:19;12.40;;;5.00;;
5900;SDS011;2976;49.764;9.796;2023-06-10T08:27:47;6.20;;;5.03;;
5900;SDS011;2976;49.764;9.796;2023-06-10T08:30:12;10.70;;;4.80;;
5900;SDS011;2976;49.764;9.796;2023-06-10T08:32:38;5.77;;;4.60;;
5900;SDS011;2976;49.764;9.796;2023-06-10T08:35:04;9.80;;;6.07;;
5900;SDS011;2976;49.764;9.796;2023-06-10T08:37:30;5.30;;;4.80;;
5900;SDS011;2976;49.764;9.796;2023-06-10T08:39:56;5.43;;;4.97;;
5900;SDS011;2976;49.764;9.796;2023-06-10T08:42:27;7.27;;;4.93;;
5900;SDS011;2976;49.764;9.796;2023-06-10T08:44:58;15.07;;;4.93;;
5900;SDS011;2976;49.764;9.796;2023-06-10T08:47:27;4.53;;;4.20;;
5900;SDS011;2976;49.764;9.796;2023-06-10T08:49:56;4.93;;;4.37;;
5900;SDS011;2976;49.764;9.796;2023-06-10T08:52:29;4.63;;;4.33;;
5900;SDS011;2976;49.764;9.796;2023-06-10T08:55:00;5.00;;;4.40;;
5900;SDS011;2976;49.764;9.796;2023-06-10T08:57:29;7.50;;;4.70;;
5900;SDS011;2976;49.764;9.796;2023-06-10T08:59:57;5.00;;;4.60;;
5900;SDS011;2976;49.764;9.796;2023-06-10T09:02:27;6.23;;;5.27;;
5900;SDS011;2976;49.764;9.796;2023-06-10T09:04:52;5.00;;;4.50;;
5900;SDS011;2976;49.764;9.796;2023-06-10T09:07:20;4.27;;;3.97;;
5900;SDS011;2976;49.764;9.796;2023-06-10T09:09:49;6.20;;;4.33;;
5900;SDS011;2976;49.764;9.796;2023-06-10T09:12:15;8.50;;;5.37;;
5900;SDS011;2976;49.764;9.796;2023-06-10T09:14:43;5.30;;;4.80;;
5900;SDS011;2976;49.764;9.796;2023-06-10T09:17:10;4.53;;;4.13;;
5900;SDS011;2976;49.764;9.796;2023-06-10T09:19:36;5.40;;;4.97;;
5900;SDS011;2976;49.764;9.796;2023-06-10T09:22:03;4.97;;;4.57;;
5900;SDS011;2976;49.764;9.796;2023-06-10T09:24:29;5.53;;;4.23;;
5900;SDS011;2976;49.764;9.796;2023-06-10T09:27:05;5.97;;;4.47;;
5900;SDS011;2976;49.764;9.796;2023-06-10T09:29:44;5.83;;;4.80;;
5900;SDS011;2976;49.764;9.796;2023-06-10T09:32:17;5.50;;;4.20;;
5900;SDS011;2976;49.764;9.796;2023-06-10T09:34:44;6.57;;;4.70;;
5900;SDS011;2976;49.764;9.796;2023-06-10T09:37:10;6.10;;;4.40;;
5900;SDS011;2976;49.764;9.796;2023-06-10T09:39:38;4.23;;;3.80;;
5900;SDS011;2976;49.764;9.796;2023-06-10T09:42:18;5.03;;;4.60;;
5900;SDS011;2976;49.764;9.796;2023-06-10T09:44:51;4.10;;;3.70;;
5900;SDS011;2976;49.764;9.796;2023-06-10T09:47:20;5.70;;;4.07;;
5900;SDS011;2976;49.764;9.796;2023-06-10T09:49:47;6.07;;;4.60;;
5900;SDS011;2976;49.764;9.796;2023-06-10T09:52:23;8.67;;;5.17;;
5900;SDS011;2976;49.764;9.796;2023-06-10T09:54:51;4.77;;;4.37;;
5900;SDS011;2976;49.764;9.796;2023-06-10T09:57:24;4.53;;;4.20;;
5900;SDS011;2976;49.764;9.796;2023-06-10T09:59:53;8.67;;;3.80;;
5900;SDS011;2976;49.764;9.796;2023-06-10T10:02:19;7.13;;;4.33;;
5900;SDS011;2976;49.764;9.796;2023-06-10T10:04:45;5.10;;;4.07;;
5900;SDS011;2976;49.764;9.796;2023-06-10T10:07:11;7.97;;;4.47;;
5900;SDS011;2976;49.764;9.796;2023-06-10T10:09:37;4.70;;;4.40;;
5900;SDS011;2976;49.764;9.796;2023-06-10T10:12:06;7.27;;;4.07;;
5900;SDS011;2976;49.764;9.796;2023-06-10T10:14:35;5.50;;;4.13;;
5900;SDS011;2976;49.764;9.796;2023-06-10T10:17:02;8.00;;;3.60;;
5900;SDS011;2976;49.764;9.796;2023-06-10T10:19:58;5.30;;;4.10;;
5900;SDS011;2976;49.764;9.796;2023-06-10T10:22:29;7.90;;;4.37;;
5900;SDS011;2976;49.764;9.796;2023-06-10T10:25:02;4.30;;;3.90;;
5900;SDS011;2976;49.764;9.796;2023-06-10T10:27:40;3.80;;;3.40;;
5900;SDS011;2976;49.764;9.796;2023-06-10T10:30:13;5.90;;;4.17;;
5900;SDS011;2976;49.764;9.796;2023-06-10T10:32:55;3.30;;;2.97;;
5900;SDS011;2976;49.764;9.796;2023-06-10T10:35:24;5.27;;;3.80;;
5900;SDS011;2976;49.764;9.796;2023-06-10T10:37:53;4.07;;;3.70;;
5900;SDS011;2976;49.764;9.796;2023-06-10T10:42:50;4.30;;;3.80;;
5900;SDS011;2976;49.764;9.796;2023-06-10T10:45:17;4.37;;;3.40;;
5900;SDS011;2976;49.764;9.796;2023-06-10T10:47:44;3.23;;;2.93;;
5900;SDS011;2976;49.764;9.796;2023-06-10T10:50:14;4.60;;;3.23;;
5900;SDS011;2976;49.764;9.796;2023-06-10T10:55:27;4.40;;;4.00;;
5900;SDS011;2976;49.764;9.796;2023-06-10T10:57:57;4.53;;;4.10;;
5900;SDS011;2976;49.764;9.796;2023-06-10T11:00:30;5.57;;;3.50;;
5900;SDS011;2976;49.764;9.796;2023-06-10T11:02:59;3.47;;;3.17;;
5900;SDS011;2976;49.764;9.796;2023-06-10T11:05:41;3.93;;;3.63;;
5900;SDS011;2976;49.764;9.796;2023-06-10T11:08:14;4.67;;;3.33;;
5900;SDS011;2976;49.764;9.796;2023-06-10T11:11:00;3.33;;;3.00;;
5900;SDS011;2976;49.764;9.796;2023-06-10T11:13:26;5.43;;;3.60;;
5900;SDS011;2976;49.764;9.796;2023-06-10T11:15:53;3.43;;;3.07;;
5900;SDS011;2976;49.764;9.796;2023-06-10T11:18:23;5.20;;;3.33;;
5900;SDS011;2976;49.764;9.796;2023-06-10T11:34:02;3.90;;;3.57;;
5900;SDS011;2976;49.764;9.796;2023-06-10T11:36:30;3.93;;;3.20;;
5900;SDS011;2976;49.764;9.796;2023-06-10T11:38:57;4.30;;;4.00;;
5900;SDS011;2976;49.764;9.796;2023-06-10T11:41:24;3.60;;;3.30;;
5900;SDS011;2976;49.764;9.796;2023-06-10T11:43:51;3.83;;;3.50;;
5900;SDS011;2976;49.764;9.796;2023-06-10T11:46:18;3.97;;;3.50;;
5900;SDS011;2976;49.764;9.796;2023-06-10T11:48:53;3.73;;;3.40;;
5900;SDS011;2976;49.764;9.796;2023-06-10T11:51:20;3.93;;;3.37;;
5900;SDS011;2976;49.764;9.796;2023-06-10T11:53:49;3.77;;;3.47;;
5900;SDS011;2976;49.764;9.796;2023-06-10T11:56:19;3.80;;;3.50;;
5900;SDS011;2976;49.764;9.796;2023-06-10T11:58:55;3.60;;;3.40;;
5900;SDS011;2976;49.764;9.796;2023-06-10T12:01:22;2.83;;;2.70;;
5900;SDS011;2976;49.764;9.796;2023-06-10T12:04:03;4.23;;;3.17;;
5900;SDS011;2976;49.764;9.796;2023-06-10T12:06:43;4.00;;;3.70;;
5900;SDS011;2976;49.764;9.796;2023-06-10T12:09:28;3.80;;;3.50;;
5900;SDS011;2976;49.764;9.796;2023-06-10T12:11:58;6.93;;;3.80;;
5900;SDS011;2976;49.764;9.796;2023-06-10T12:17:20;5.27;;;3.43;;
5900;SDS011;2976;49.764;9.796;2023-06-10T12:19:47;5.13;;;3.50;;
5900;SDS011;2976;49.764;9.796;2023-06-10T12:22:13;3.67;;;3.37;;
5900;SDS011;2976;49.764;9.796;2023-06-10T12:24:45;3.33;;;3.10;;
5900;SDS011;2976;49.764;9.796;2023-06-10T12:27:24;2.90;;;2.70;;
5900;SDS011;2976;49.764;9.796;2023-06-10T12:29:51;3.63;;;3.23;;
5900;SDS011;2976;49.764;9.796;2023-06-10T12:32:20;6.83;;;3.03;;
5900;SDS011;2976;49.764;9.796;2023-06-10T12:34:52;5.97;;;3.70;;
5900;SDS011;2976;49.764;9.796;2023-06-10T12:37:31;3.63;;;3.33;;
5900;SDS011;2976;49.764;9.796;2023-06-10T12:40:02;3.23;;;3.03;;
5900;SDS011;2976;49.764;9.796;2023-06-10T12:42:29;3.60;;;3.30;;
5900;SDS011;2976;49.764;9.796;2023-06-10T12:44:56;3.83;;;3.00;;
5900;SDS011;2976;49.764;9.796;2023-06-10T12:47:32;3.90;;;3.17;;
5900;SDS011;2976;49.764;9.796;2023-06-10T12:50:00;3.50;;;3.20;;
5900;SDS011;2976;49.764;9.796;2023-06-10T12:52:26;3.90;;;3.50;;
5900;SDS011;2976;49.764;9.796;2023-06-10T12:54:53;3.53;;;3.30;;
5900;SDS011;2976;49.764;9.796;2023-06-10T12:57:19;7.73;;;3.10;;
5900;SDS011;2976;49.764;9.796;2023-06-10T12:59:48;6.20;;;3.30;;
5900;SDS011;2976;49.764;9.796;2023-06-10T13:02:20;9.83;;;3.40;;
5900;SDS011;2976;49.764;9.796;2023-06-10T13:04:48;3.30;;;3.07;;
5900;SDS011;2976;49.764;9.796;2023-06-10T13:07:14;3.37;;;3.07;;
5900;SDS011;2976;49.764;9.796;2023-06-10T13:09:40;4.23;;;3.20;;
5900;SDS011;2976;49.764;9.796;2023-06-10T13:12:06;3.90;;;3.07;;
5900;SDS011;2976;49.764;9.796;2023-06-10T13:14:32;3.60;;;3.10;;
5900;SDS011;2976;49.764;9.796;2023-06-10T13:16:58;3.60;;;3.30;;
5900;SDS011;2976;49.764;9.796;2023-06-10T13:19:24;3.40;;;3.10;;
5900;SDS011;2976;49.764;9.796;2023-06-10T13:21:50;5.13;;;3.10;;
5900;SDS011;2976;49.764;9.796;2023-06-10T13:24:16;3.90;;;2.90;;
5900;SDS011;2976;49.764;9.796;2023-06-10T13:26:42;3.00;;;2.80;;
5900;SDS011;2976;49.764;9.796;2023-06-10T13:29:07;3.30;;;3.10;;
5900;SDS011;2976;49.764;9.796;2023-06-10T13:31:38;4.30;;;2.63;;
5900;SDS011;2976;49.764;9.796;2023-06-10T13:34:04;3.03;;;2.70;;
5900;SDS011;2976;49.764;9.796;2023-06-10T13:36:31;4.20;;;3.70;;
5900;SDS011;2976;49.764;9.796;2023-06-10T13:38:56;4.13;;;3.50;;
5900;SDS011;2976;49.764;9.796;2023-06-10T13:41:22;4.40;;;3.33;;
5900;SDS011;2976;49.764;9.796;2023-06-10T13:43:47;3.27;;;3.00;;
5900;SDS011;2976;49.764;9.796;2023-06-10T13:46:13;3.40;;;3.10;;
5900;SDS011;2976;49.764;9.796;2023-06-10T13:48:39;2.80;;;2.60;;
5900;SDS011;2976;49.764;9.796;2023-06-10T13:51:04;7.80;;;3.10;;
5900;SDS011;2976;49.764;9.796;2023-06-10T13:53:31;3.40;;;3.17;;
5900;SDS011;2976;49.764;9.796;2023-06-10T13:55:57;2.70;;;2.50;;
5900;SDS011;2976;49.764;9.796;2023-06-10T13:58:22;6.30;;;3.10;;
5900;SDS011;2976;49.764;9.796;2023-06-10T14:00:48;3.90;;;3.60;;
5900;SDS011;2976;49.764;9.796;2023-06-10T14:03:14;5.90;;;3.00;;
5900;SDS011;2976;49.764;9.796;2023-06-10T14:05:39;4.70;;;3.27;;
5900;SDS011;2976;49.764;9.796;2023-06-10T14:08:05;3.37;;;3.07;;
5900;SDS011;2976;49.764;9.796;2023-06-10T14:10:31;3.90;;;3.20;;
5900;SDS011;2976;49.764;9.796;2023-06-10T14:12:56;6.90;;;3.37;;
5900;SDS011;2976;49.764;9.796;2023-06-10T14:15:22;3.27;;;3.07;;
5900;SDS011;2976;49.764;9.796;2023-06-10T14:17:47;2.80;;;2.60;;
5900;SDS011;2976;49.764;9.796;2023-06-10T14:20:13;3.00;;;2.80;;
5900;SDS011;2976;49.764;9.796;2023-06-10T14:22:38;3.90;;;3.60;;
5900;SDS011;2976;49.764;9.796;2023-06-10T14:25:04;3.37;;;3.07;;
5900;SDS011;2976;49.764;9.796;2023-06-10T14:27:31;3.90;;;2.80;;
5900;SDS011;2976;49.764;9.796;2023-06-10T14:29:56;3.40;;;3.13;;
5900;SDS011;2976;49.764;9.796;2023-06-10T14:32:22;3.10;;;2.90;;
5900;SDS011;2976;49.764;9.796;2023-06-10T14:34:47;9.27;;;3.03;;
5900;SDS011;2976;49.764;9.796;2023-06-10T14:37:13;3.20;;;2.90;;
5900;SDS011;2976;49.764;9.796;2023-06-10T14:39:39;5.00;;;3.03;;
5900;SDS011;2976;49.764;9.796;2023-06-10T14:42:04;7.90;;;3.40;;
5900;SDS011;2976;49.764;9.796;2023-06-10T14:44:30;2.57;;;2.43;;
5900;SDS011;2976;49.764;9.796;2023-06-10T14:46:56;3.37;;;2.90;;
5900;SDS011;2976;49.764;9.796;2023-06-10T14:49:22;5.43;;;2.70;;
5900;SDS011;2976;49.764;9.796;2023-06-10T14:51:47;5.10;;;3.37;;
5900;SDS011;2976;49.764;9.796;2023-06-10T14:54:14;7.90;;;3.20;;
5900;SDS011;2976;49.764;9.796;2023-06-10T14:56:40;3.03;;;2.83;;
5900;SDS011;2976;49.764;9.796;2023-06-10T14:59:06;2.53;;;2.37;;
5900;SDS011;2976;49.764;9.796;2023-06-10T15:01:31;3.10;;;2.90;;
5900;SDS011;2976;49.764;9.796;2023-06-10T15:03:57;4.17;;;2.80;;
5900;SDS011;2976;49.764;9.796;2023-06-10T15:06:22;3.00;;;2.43;;
5900;SDS011;2976;49.764;9.796;2023-06-10T15:08:48;2.40;;;2.30;;
5900;SDS011;2976;49.764;9.796;2023-06-10T15:11:14;6.33;;;2.30;;
5900;SDS011;2976;49.764;9.796;2023-06-10T15:13:40;3.80;;;2.33;;
5900;SDS011;2976;49.764;9.796;2023-06-10T15:16:05;2.70;;;2.50;;
5900;SDS011;2976;49.764;9.796;2023-06-10T15:18:31;2.60;;;2.50;;
5900;SDS011;2976;49.764;9.796;2023-06-10T15:20:57;2.43;;;2.23;;
5900;SDS011;2976;49.764;9.796;2023-06-10T15:23:23;3.73;;;2.20;;
5900;SDS011;2976;49.764;9.796;2023-06-10T15:25:48;3.40;;;2.47;;
5900;SDS011;2976;49.764;9.796;2023-06-10T15:28:14;6.13;;;2.77;;
5900;SDS011;2976;49.764;9.796;2023-06-10T15:30:39;4.73;;;2.67;;
5900;SDS011;2976;49.764;9.796;2023-06-10T15:33:05;2.63;;;2.43;;